Lucien, Oklahoma
Current Conditions -  °F | °C
As of 1:15 AM on Saturday 25 Oct 2014 (Local Time) from KWDG Reporting Station
NA  
Wind Chill: 59°   Ceiling: NA
Heat Index: 59°   Visibility: 7mi
Dew Point: 59°   Wind: 5mph
Humidity: 100%   Direction: 160°SSE
Pressure: 30.02"   Gusts: NA
Location:  36.27°N, 97.46°W
Report Text: KWDG 250615Z AUTO 16004KT 7SM 15/15 A3002 RMK AO2
Loading
Personal Weather Stations






























Interactive Weather Map
Tropical Storm Tracking
New forecast layout! Learn more

10-Day Weather Forecast

Advertisements
Track Severe Weather on mobile